sensor_id;sensor_type;location;lat;lon;timestamp;P1;durP1;ratioP1;P2;durP2;ratioP2
5754;SDS011;2902;42.130;24.732;2024-01-25T00:00:15;26.87;;;16.47;;
5754;SDS011;2902;42.130;24.732;2024-01-25T00:02:43;17.67;;;14.27;;
5754;SDS011;2902;42.130;24.732;2024-01-25T00:05:11;24.23;;;14.17;;
5754;SDS011;2902;42.130;24.732;2024-01-25T00:07:44;16.97;;;14.00;;
5754;SDS011;2902;42.130;24.732;2024-01-25T00:10:11;21.37;;;15.57;;
5754;SDS011;2902;42.130;24.732;2024-01-25T00:12:38;20.17;;;15.70;;
5754;SDS011;2902;42.130;24.732;2024-01-25T00:15:05;23.33;;;15.63;;
5754;SDS011;2902;42.130;24.732;2024-01-25T00:17:32;29.43;;;18.67;;
5754;SDS011;2902;42.130;24.732;2024-01-25T00:19:59;21.13;;;15.70;;
5754;SDS011;2902;42.130;24.732;2024-01-25T00:22:27;21.10;;;16.43;;
5754;SDS011;2902;42.130;24.732;2024-01-25T00:24:53;26.10;;;16.37;;
5754;SDS011;2902;42.130;24.732;2024-01-25T00:27:20;24.27;;;17.30;;
5754;SDS011;2902;42.130;24.732;2024-01-25T00:29:47;22.53;;;16.77;;
5754;SDS011;2902;42.130;24.732;2024-01-25T00:32:13;24.00;;;16.43;;
5754;SDS011;2902;42.130;24.732;2024-01-25T00:34:40;25.50;;;17.37;;
5754;SDS011;2902;42.130;24.732;2024-01-25T00:37:07;23.70;;;16.77;;
5754;SDS011;2902;42.130;24.732;2024-01-25T00:39:36;26.53;;;16.53;;
5754;SDS011;2902;42.130;24.732;2024-01-25T00:42:04;26.57;;;17.33;;
5754;SDS011;2902;42.130;24.732;2024-01-25T00:44:32;24.87;;;17.40;;
5754;SDS011;2902;42.130;24.732;2024-01-25T00:47:00;26.10;;;17.50;;
5754;SDS011;2902;42.130;24.732;2024-01-25T00:49:27;23.73;;;17.17;;
5754;SDS011;2902;42.130;24.732;2024-01-25T00:51:59;26.90;;;17.67;;
5754;SDS011;2902;42.130;24.732;2024-01-25T00:54:27;22.90;;;15.43;;
5754;SDS011;2902;42.130;24.732;2024-01-25T00:56:56;22.47;;;16.47;;
5754;SDS011;2902;42.130;24.732;2024-01-25T00:59:23;24.03;;;15.60;;
5754;SDS011;2902;42.130;24.732;2024-01-25T01:01:50;20.67;;;14.83;;
5754;SDS011;2902;42.130;24.732;2024-01-25T01:04:19;13.27;;;11.60;;
5754;SDS011;2902;42.130;24.732;2024-01-25T01:06:46;10.80;;;9.07;;
5754;SDS011;2902;42.130;24.732;2024-01-25T01:09:14;8.60;;;7.67;;
5754;SDS011;2902;42.130;24.732;2024-01-25T01:11:41;6.10;;;5.70;;
5754;SDS011;2902;42.130;24.732;2024-01-25T01:14:09;5.90;;;4.47;;
5754;SDS011;2902;42.130;24.732;2024-01-25T01:16:36;3.63;;;3.43;;
5754;SDS011;2902;42.130;24.732;2024-01-25T01:19:02;3.50;;;3.20;;
5754;SDS011;2902;42.130;24.732;2024-01-25T01:21:32;12.03;;;6.63;;
5754;SDS011;2902;42.130;24.732;2024-01-25T01:23:59;6.50;;;5.10;;
5754;SDS011;2902;42.130;24.732;2024-01-25T01:26:26;4.57;;;4.20;;
5754;SDS011;2902;42.130;24.732;2024-01-25T01:28:53;6.13;;;4.17;;
5754;SDS011;2902;42.130;24.732;2024-01-25T01:31:21;4.73;;;3.63;;
5754;SDS011;2902;42.130;24.732;2024-01-25T01:33:47;4.17;;;3.37;;
5754;SDS011;2902;42.130;24.732;2024-01-25T01:36:14;3.70;;;3.40;;
5754;SDS011;2902;42.130;24.732;2024-01-25T01:38:41;3.90;;;3.70;;
5754;SDS011;2902;42.130;24.732;2024-01-25T01:41:09;3.80;;;3.50;;
5754;SDS011;2902;42.130;24.732;2024-01-25T01:43:37;2.80;;;2.47;;
5754;SDS011;2902;42.130;24.732;2024-01-25T01:46:06;3.17;;;2.73;;
5754;SDS011;2902;42.130;24.732;2024-01-25T01:48:38;3.63;;;3.33;;
5754;SDS011;2902;42.130;24.732;2024-01-25T01:51:05;3.97;;;3.30;;
5754;SDS011;2902;42.130;24.732;2024-01-25T01:53:32;3.87;;;3.67;;
5754;SDS011;2902;42.130;24.732;2024-01-25T01:55:59;3.00;;;2.60;;
5754;SDS011;2902;42.130;24.732;2024-01-25T01:58:26;2.73;;;2.50;;
5754;SDS011;2902;42.130;24.732;2024-01-25T02:00:55;2.87;;;2.67;;
5754;SDS011;2902;42.130;24.732;2024-01-25T02:03:21;3.00;;;2.80;;
5754;SDS011;2902;42.130;24.732;2024-01-25T02:05:50;2.63;;;2.43;;
5754;SDS011;2902;42.130;24.732;2024-01-25T02:08:17;3.07;;;2.53;;
5754;SDS011;2902;42.130;24.732;2024-01-25T02:10:43;3.67;;;2.87;;
5754;SDS011;2902;42.130;24.732;2024-01-25T02:13:10;3.40;;;3.20;;
5754;SDS011;2902;42.130;24.732;2024-01-25T02:15:37;3.00;;;2.80;;
5754;SDS011;2902;42.130;24.732;2024-01-25T02:18:04;3.57;;;3.07;;
5754;SDS011;2902;42.130;24.732;2024-01-25T02:20:31;2.77;;;2.57;;
5754;SDS011;2902;42.130;24.732;2024-01-25T02:22:59;2.50;;;2.30;;
5754;SDS011;2902;42.130;24.732;2024-01-25T02:25:26;2.80;;;2.63;;
5754;SDS011;2902;42.130;24.732;2024-01-25T02:27:53;2.83;;;2.37;;
5754;SDS011;2902;42.130;24.732;2024-01-25T02:30:19;2.53;;;2.33;;
5754;SDS011;2902;42.130;24.732;2024-01-25T02:32:46;2.93;;;2.67;;
5754;SDS011;2902;42.130;24.732;2024-01-25T02:35:13;4.03;;;2.57;;
5754;SDS011;2902;42.130;24.732;2024-01-25T02:37:40;4.07;;;2.43;;
5754;SDS011;2902;42.130;24.732;2024-01-25T02:40:09;2.70;;;2.50;;
5754;SDS011;2902;42.130;24.732;2024-01-25T02:42:36;2.43;;;2.30;;
5754;SDS011;2902;42.130;24.732;2024-01-25T02:45:03;4.00;;;2.30;;
5754;SDS011;2902;42.130;24.732;2024-01-25T02:47:30;2.10;;;2.00;;
5754;SDS011;2902;42.130;24.732;2024-01-25T02:49:56;2.43;;;2.33;;
5754;SDS011;2902;42.130;24.732;2024-01-25T02:52:23;3.30;;;1.90;;
5754;SDS011;2902;42.130;24.732;2024-01-25T02:54:50;1.90;;;1.80;;
5754;SDS011;2902;42.130;24.732;2024-01-25T02:57:18;2.67;;;2.07;;
5754;SDS011;2902;42.130;24.732;2024-01-25T02:59:44;1.90;;;1.80;;
5754;SDS011;2902;42.130;24.732;2024-01-25T03:02:11;1.93;;;1.73;;
5754;SDS011;2902;42.130;24.732;2024-01-25T03:04:38;1.93;;;1.83;;
5754;SDS011;2902;42.130;24.732;2024-01-25T03:07:05;2.00;;;1.90;;
5754;SDS011;2902;42.130;24.732;2024-01-25T03:09:31;2.13;;;1.97;;
5754;SDS011;2902;42.130;24.732;2024-01-25T03:11:58;2.10;;;2.00;;
5754;SDS011;2902;42.130;24.732;2024-01-25T03:14:26;2.20;;;2.00;;
5754;SDS011;2902;42.130;24.732;2024-01-25T03:16:53;2.23;;;2.10;;
5754;SDS011;2902;42.130;24.732;2024-01-25T03:19:20;2.30;;;2.20;;
5754;SDS011;2902;42.130;24.732;2024-01-25T03:21:46;2.13;;;2.00;;
5754;SDS011;2902;42.130;24.732;2024-01-25T03:24:13;2.00;;;1.90;;
5754;SDS011;2902;42.130;24.732;2024-01-25T03:26:40;2.67;;;2.50;;
5754;SDS011;2902;42.130;24.732;2024-01-25T03:29:07;3.43;;;2.20;;
5754;SDS011;2902;42.130;24.732;2024-01-25T03:31:35;2.33;;;2.23;;
5754;SDS011;2902;42.130;24.732;2024-01-25T03:34:02;2.77;;;2.63;;
5754;SDS011;2902;42.130;24.732;2024-01-25T03:36:30;2.93;;;2.73;;
5754;SDS011;2902;42.130;24.732;2024-01-25T03:38:56;2.40;;;2.30;;
5754;SDS011;2902;42.130;24.732;2024-01-25T03:41:23;2.50;;;2.30;;
5754;SDS011;2902;42.130;24.732;2024-01-25T03:43:50;2.80;;;2.27;;
5754;SDS011;2902;42.130;24.732;2024-01-25T03:46:17;3.83;;;3.33;;
5754;SDS011;2902;42.130;24.732;2024-01-25T03:48:45;3.10;;;2.80;;
5754;SDS011;2902;42.130;24.732;2024-01-25T03:51:12;3.10;;;2.90;;
5754;SDS011;2902;42.130;24.732;2024-01-25T03:53:39;4.80;;;3.03;;
5754;SDS011;2902;42.130;24.732;2024-01-25T03:56:10;3.33;;;3.13;;
5754;SDS011;2902;42.130;24.732;2024-01-25T03:58:38;3.30;;;3.10;;
5754;SDS011;2902;42.130;24.732;2024-01-25T04:01:04;3.40;;;3.20;;
5754;SDS011;2902;42.130;24.732;2024-01-25T04:03:32;6.70;;;3.13;;
5754;SDS011;2902;42.130;24.732;2024-01-25T04:06:00;2.60;;;2.40;;
5754;SDS011;2902;42.130;24.732;2024-01-25T04:08:27;2.00;;;1.90;;
5754;SDS011;2902;42.130;24.732;2024-01-25T04:10:53;1.97;;;1.63;;
5754;SDS011;2902;42.130;24.732;2024-01-25T04:13:20;2.57;;;1.63;;
5754;SDS011;2902;42.130;24.732;2024-01-25T04:15:47;3.07;;;2.50;;
5754;SDS011;2902;42.130;24.732;2024-01-25T04:18:13;1.30;;;1.23;;
5754;SDS011;2902;42.130;24.732;2024-01-25T04:20:40;1.53;;;1.43;;
5754;SDS011;2902;42.130;24.732;2024-01-25T04:23:09;1.20;;;1.17;;
5754;SDS011;2902;42.130;24.732;2024-01-25T04:25:36;1.47;;;1.40;;
5754;SDS011;2902;42.130;24.732;2024-01-25T04:28:02;1.80;;;1.70;;
5754;SDS011;2902;42.130;24.732;2024-01-25T04:30:29;1.40;;;1.30;;
5754;SDS011;2902;42.130;24.732;2024-01-25T04:32:57;2.30;;;2.07;;
5754;SDS011;2902;42.130;24.732;2024-01-25T04:35:24;2.67;;;1.53;;
5754;SDS011;2902;42.130;24.732;2024-01-25T04:37:51;1.93;;;1.53;;
5754;SDS011;2902;42.130;24.732;2024-01-25T04:40:19;9.37;;;2.67;;
5754;SDS011;2902;42.130;24.732;2024-01-25T04:42:46;2.67;;;2.13;;
5754;SDS011;2902;42.130;24.732;2024-01-25T04:45:12;2.40;;;2.30;;
5754;SDS011;2902;42.130;24.732;2024-01-25T04:47:39;3.60;;;2.00;;
5754;SDS011;2902;42.130;24.732;2024-01-25T04:50:06;2.30;;;2.10;;
5754;SDS011;2902;42.130;24.732;2024-01-25T04:52:33;1.83;;;1.73;;
5754;SDS011;2902;42.130;24.732;2024-01-25T04:55:00;2.67;;;1.97;;
5754;SDS011;2902;42.130;24.732;2024-01-25T04:57:28;3.13;;;1.53;;
5754;SDS011;2902;42.130;24.732;2024-01-25T04:59:55;1.63;;;1.53;;
5754;SDS011;2902;42.130;24.732;2024-01-25T05:02:21;1.83;;;1.73;;
5754;SDS011;2902;42.130;24.732;2024-01-25T05:04:48;1.80;;;1.70;;
5754;SDS011;2902;42.130;24.732;2024-01-25T05:07:15;1.70;;;1.60;;
5754;SDS011;2902;42.130;24.732;2024-01-25T05:09:42;3.63;;;2.33;;
5754;SDS011;2902;42.130;24.732;2024-01-25T05:12:09;3.30;;;2.00;;
5754;SDS011;2902;42.130;24.732;2024-01-25T05:14:37;2.00;;;1.90;;
5754;SDS011;2902;42.130;24.732;2024-01-25T05:17:03;2.03;;;1.93;;
5754;SDS011;2902;42.130;24.732;2024-01-25T05:19:30;4.13;;;1.73;;
5754;SDS011;2902;42.130;24.732;2024-01-25T05:21:57;1.83;;;1.57;;
5754;SDS011;2902;42.130;24.732;2024-01-25T05:24:24;1.70;;;1.60;;
5754;SDS011;2902;42.130;24.732;2024-01-25T05:26:50;1.40;;;1.40;;
5754;SDS011;2902;42.130;24.732;2024-01-25T05:29:17;1.90;;;1.80;;
5754;SDS011;2902;42.130;24.732;2024-01-25T05:31:45;2.50;;;2.00;;
5754;SDS011;2902;42.130;24.732;2024-01-25T05:34:13;2.60;;;2.50;;
5754;SDS011;2902;42.130;24.732;2024-01-25T05:36:40;2.10;;;1.80;;
5754;SDS011;2902;42.130;24.732;2024-01-25T05:39:07;3.30;;;3.10;;
5754;SDS011;2902;42.130;24.732;2024-01-25T05:41:34;4.50;;;2.20;;
5754;SDS011;2902;42.130;24.732;2024-01-25T05:44:01;4.30;;;4.10;;
5754;SDS011;2902;42.130;24.732;2024-01-25T05:46:28;5.30;;;4.50;;
5754;SDS011;2902;42.130;24.732;2024-01-25T05:48:56;2.50;;;2.30;;
5754;SDS011;2902;42.130;24.732;2024-01-25T05:51:23;2.60;;;2.33;;
5754;SDS011;2902;42.130;24.732;2024-01-25T05:53:50;2.20;;;1.60;;
5754;SDS011;2902;42.130;24.732;2024-01-25T05:56:16;9.60;;;1.67;;
5754;SDS011;2902;42.130;24.732;2024-01-25T05:58:43;66.23;;;4.47;;
5754;SDS011;2902;42.130;24.732;2024-01-25T06:01:10;7.50;;;6.03;;
5754;SDS011;2902;42.130;24.732;2024-01-25T06:03:36;2.70;;;2.50;;
5754;SDS011;2902;42.130;24.732;2024-01-25T06:06:05;3.10;;;2.90;;
5754;SDS011;2902;42.130;24.732;2024-01-25T06:08:32;4.40;;;2.07;;
5754;SDS011;2902;42.130;24.732;2024-01-25T06:10:59;2.20;;;2.10;;
5754;SDS011;2902;42.130;24.732;2024-01-25T06:13:26;3.73;;;1.83;;
5754;SDS011;2902;42.130;24.732;2024-01-25T06:15:53;2.70;;;2.50;;
5754;SDS011;2902;42.130;24.732;2024-01-25T06:18:19;3.73;;;2.10;;
5754;SDS011;2902;42.130;24.732;2024-01-25T06:20:46;2.70;;;2.50;;
5754;SDS011;2902;42.130;24.732;2024-01-25T06:23:14;5.87;;;2.93;;
5754;SDS011;2902;42.130;24.732;2024-01-25T06:25:41;4.27;;;3.90;;
5754;SDS011;2902;42.130;24.732;2024-01-25T06:28:07;6.00;;;3.13;;
5754;SDS011;2902;42.130;24.732;2024-01-25T06:30:34;2.90;;;2.70;;
5754;SDS011;2902;42.130;24.732;2024-01-25T06:33:01;3.27;;;2.87;;
5754;SDS011;2902;42.130;24.732;2024-01-25T06:35:28;2.30;;;2.20;;
5754;SDS011;2902;42.130;24.732;2024-01-25T06:37:55;3.13;;;2.83;;
5754;SDS011;2902;42.130;24.732;2024-01-25T06:40:24;3.43;;;2.10;;
5754;SDS011;2902;42.130;24.732;2024-01-25T06:42:50;2.93;;;2.60;;
5754;SDS011;2902;42.130;24.732;2024-01-25T06:45:17;11.03;;;3.43;;
5754;SDS011;2902;42.130;24.732;2024-01-25T06:47:44;4.90;;;2.17;;
5754;SDS011;2902;42.130;24.732;2024-01-25T06:50:11;11.03;;;3.23;;
5754;SDS011;2902;42.130;24.732;2024-01-25T06:52:38;6.43;;;1.93;;
5754;SDS011;2902;42.130;24.732;2024-01-25T06:55:05;2.77;;;2.17;;
5754;SDS011;2902;42.130;24.732;2024-01-25T06:57:33;13.37;;;4.80;;
5754;SDS011;2902;42.130;24.732;2024-01-25T07:00:00;4.47;;;4.07;;
5754;SDS011;2902;42.130;24.732;2024-01-25T07:02:27;5.23;;;3.80;;
5754;SDS011;2902;42.130;24.732;2024-01-25T07:04:53;4.50;;;2.33;;
5754;SDS011;2902;42.130;24.732;2024-01-25T07:07:20;3.23;;;2.17;;
5754;SDS011;2902;42.130;24.732;2024-01-25T07:09:47;2.87;;;1.80;;
5754;SDS011;2902;42.130;24.732;2024-01-25T07:12:14;2.77;;;2.57;;
5754;SDS011;2902;42.130;24.732;2024-01-25T07:14:42;4.40;;;4.10;;
5754;SDS011;2902;42.130;24.732;2024-01-25T07:17:08;3.47;;;3.00;;
5754;SDS011;2902;42.130;24.732;2024-01-25T07:19:35;4.43;;;2.67;;
5754;SDS011;2902;42.130;24.732;2024-01-25T07:22:03;3.33;;;2.10;;
5754;SDS011;2902;42.130;24.732;2024-01-25T07:24:30;3.50;;;2.33;;
5754;SDS011;2902;42.130;24.732;2024-01-25T07:26:57;6.23;;;3.50;;
5754;SDS011;2902;42.130;24.732;2024-01-25T07:29:24;4.70;;;3.70;;
5754;SDS011;2902;42.130;24.732;2024-01-25T07:31:52;11.43;;;4.57;;
5754;SDS011;2902;42.130;24.732;2024-01-25T07:34:19;8.60;;;4.33;;
5754;SDS011;2902;42.130;24.732;2024-01-25T07:36:45;7.87;;;3.50;;
5754;SDS011;2902;42.130;24.732;2024-01-25T07:39:12;30.97;;;3.33;;
5754;SDS011;2902;42.130;24.732;2024-01-25T07:41:39;10.40;;;2.43;;
5754;SDS011;2902;42.130;24.732;2024-01-25T07:44:06;13.63;;;2.50;;
5754;SDS011;2902;42.130;24.732;2024-01-25T07:46:32;5.30;;;2.37;;
5754;SDS011;2902;42.130;24.732;2024-01-25T07:49:00;3.23;;;1.83;;
5754;SDS011;2902;42.130;24.732;2024-01-25T07:51:27;4.17;;;2.00;;
5754;SDS011;2902;42.130;24.732;2024-01-25T07:53:54;3.00;;;1.90;;
5754;SDS011;2902;42.130;24.732;2024-01-25T07:56:21;3.43;;;1.97;;
5754;SDS011;2902;42.130;24.732;2024-01-25T07:58:48;6.73;;;4.33;;
5754;SDS011;2902;42.130;24.732;2024-01-25T08:01:17;7.07;;;4.23;;
5754;SDS011;2902;42.130;24.732;2024-01-25T08:03:44;3.37;;;2.10;;
5754;SDS011;2902;42.130;24.732;2024-01-25T08:06:12;6.80;;;2.80;;
5754;SDS011;2902;42.130;24.732;2024-01-25T08:08:40;5.80;;;3.60;;
5754;SDS011;2902;42.130;24.732;2024-01-25T08:11:07;9.00;;;3.97;;
5754;SDS011;2902;42.130;24.732;2024-01-25T08:13:33;4.77;;;2.57;;
5754;SDS011;2902;42.130;24.732;2024-01-25T08:16:00;11.87;;;3.47;;
5754;SDS011;2902;42.130;24.732;2024-01-25T08:18:27;4.60;;;2.50;;
5754;SDS011;2902;42.130;24.732;2024-01-25T08:20:55;10.90;;;3.13;;
5754;SDS011;2902;42.130;24.732;2024-01-25T08:23:23;10.13;;;3.20;;
5754;SDS011;2902;42.130;24.732;2024-01-25T08:25:50;9.30;;;2.97;;
5754;SDS011;2902;42.130;24.732;2024-01-25T08:28:16;4.30;;;2.83;;
5754;SDS011;2902;42.130;24.732;2024-01-25T08:30:43;2.60;;;2.40;;
5754;SDS011;2902;42.130;24.732;2024-01-25T08:33:10;8.70;;;2.80;;
5754;SDS011;2902;42.130;24.732;2024-01-25T08:35:37;15.73;;;3.50;;
5754;SDS011;2902;42.130;24.732;2024-01-25T08:38:05;3.53;;;2.70;;
5754;SDS011;2902;42.130;24.732;2024-01-25T08:40:33;4.83;;;3.27;;
5754;SDS011;2902;42.130;24.732;2024-01-25T08:43:00;6.43;;;2.97;;
5754;SDS011;2902;42.130;24.732;2024-01-25T08:45:27;10.23;;;3.50;;
5754;SDS011;2902;42.130;24.732;2024-01-25T08:47:53;24.97;;;4.23;;
5754;SDS011;2902;42.130;24.732;2024-01-25T08:50:21;8.77;;;3.43;;
5754;SDS011;2902;42.130;24.732;2024-01-25T08:52:47;10.53;;;3.23;;
5754;SDS011;2902;42.130;24.732;2024-01-25T08:55:14;9.90;;;3.67;;
5754;SDS011;2902;42.130;24.732;2024-01-25T08:57:42;16.60;;;3.80;;
5754;SDS011;2902;42.130;24.732;2024-01-25T09:00:09;4.17;;;3.00;;
5754;SDS011;2902;42.130;24.732;2024-01-25T09:02:36;47.77;;;6.70;;
5754;SDS011;2902;42.130;24.732;2024-01-25T09:05:03;3.20;;;2.00;;
5754;SDS011;2902;42.130;24.732;2024-01-25T09:07:31;6.10;;;2.30;;
5754;SDS011;2902;42.130;24.732;2024-01-25T09:09:58;5.60;;;2.37;;
5754;SDS011;2902;42.130;24.732;2024-01-25T09:12:24;8.13;;;2.50;;
5754;SDS011;2902;42.130;24.732;2024-01-25T09:14:52;28.77;;;4.00;;
5754;SDS011;2902;42.130;24.732;2024-01-25T09:17:19;6.53;;;2.23;;
5754;SDS011;2902;42.130;24.732;2024-01-25T09:19:47;11.60;;;2.63;;
5754;SDS011;2902;42.130;24.732;2024-01-25T09:22:14;16.87;;;3.40;;
5754;SDS011;2902;42.130;24.732;2024-01-25T09:24:42;5.67;;;2.80;;
5754;SDS011;2902;42.130;24.732;2024-01-25T09:27:09;7.10;;;3.03;;
5754;SDS011;2902;42.130;24.732;2024-01-25T09:29:36;13.43;;;2.50;;
5754;SDS011;2902;42.130;24.732;2024-01-25T09:32:05;4.30;;;2.33;;
5754;SDS011;2902;42.130;24.732;2024-01-25T09:34:32;6.93;;;2.33;;
5754;SDS011;2902;42.130;24.732;2024-01-25T09:36:59;4.47;;;2.40;;
5754;SDS011;2902;42.130;24.732;2024-01-25T09:39:25;5.17;;;2.40;;
5754;SDS011;2902;42.130;24.732;2024-01-25T09:41:52;3.80;;;2.60;;
5754;SDS011;2902;42.130;24.732;2024-01-25T09:44:19;9.80;;;2.70;;
5754;SDS011;2902;42.130;24.732;2024-01-25T09:46:46;4.40;;;2.20;;
5754;SDS011;2902;42.130;24.732;2024-01-25T09:49:14;8.60;;;3.00;;
5754;SDS011;2902;42.130;24.732;2024-01-25T09:51:41;5.30;;;2.63;;
5754;SDS011;2902;42.130;24.732;2024-01-25T09:54:11;4.00;;;3.00;;
5754;SDS011;2902;42.130;24.732;2024-01-25T09:56:38;7.10;;;3.77;;
5754;SDS011;2902;42.130;24.732;2024-01-25T09:59:08;11.37;;;3.27;;
5754;SDS011;2902;42.130;24.732;2024-01-25T10:01:35;8.53;;;3.57;;
5754;SDS011;2902;42.130;24.732;2024-01-25T10:04:04;4.47;;;2.70;;
5754;SDS011;2902;42.130;24.732;2024-01-25T10:06:34;5.63;;;2.97;;
5754;SDS011;2902;42.130;24.732;2024-01-25T10:09:00;13.50;;;3.47;;
5754;SDS011;2902;42.130;24.732;2024-01-25T10:11:28;7.87;;;3.57;;
5754;SDS011;2902;42.130;24.732;2024-01-25T10:14:00;14.63;;;3.00;;
5754;SDS011;2902;42.130;24.732;2024-01-25T10:16:28;13.37;;;3.93;;
5754;SDS011;2902;42.130;24.732;2024-01-25T10:18:56;15.27;;;3.27;;
5754;SDS011;2902;42.130;24.732;2024-01-25T10:21:22;5.33;;;2.60;;
5754;SDS011;2902;42.130;24.732;2024-01-25T10:23:51;26.13;;;4.33;;
5754;SDS011;2902;42.130;24.732;2024-01-25T10:26:19;7.53;;;2.70;;
5754;SDS011;2902;42.130;24.732;2024-01-25T10:28:55;4.20;;;2.60;;
5754;SDS011;2902;42.130;24.732;2024-01-25T10:31:22;2.60;;;2.40;;
5754;SDS011;2902;42.130;24.732;2024-01-25T10:33:51;6.90;;;3.30;;
5754;SDS011;2902;42.130;24.732;2024-01-25T10:36:18;3.23;;;2.40;;
5754;SDS011;2902;42.130;24.732;2024-01-25T10:38:48;6.20;;;2.90;;
5754;SDS011;2902;42.130;24.732;2024-01-25T10:41:17;8.07;;;3.00;;
5754;SDS011;2902;42.130;24.732;2024-01-25T10:43:45;7.50;;;3.30;;
5754;SDS011;2902;42.130;24.732;2024-01-25T10:46:12;10.90;;;4.13;;
5754;SDS011;2902;42.130;24.732;2024-01-25T10:48:39;9.37;;;2.93;;
5754;SDS011;2902;42.130;24.732;2024-01-25T10:51:07;8.20;;;3.27;;
5754;SDS011;2902;42.130;24.732;2024-01-25T10:53:35;4.67;;;3.17;;
5754;SDS011;2902;42.130;24.732;2024-01-25T10:56:03;10.10;;;3.47;;
5754;SDS011;2902;42.130;24.732;2024-01-25T10:58:32;9.97;;;3.27;;
5754;SDS011;2902;42.130;24.732;2024-01-25T11:01:00;12.60;;;3.70;;
5754;SDS011;2902;42.130;24.732;2024-01-25T11:03:28;4.80;;;2.60;;
5754;SDS011;2902;42.130;24.732;2024-01-25T11:06:05;5.20;;;3.03;;
5754;SDS011;2902;42.130;24.732;2024-01-25T11:08:32;5.20;;;2.90;;
5754;SDS011;2902;42.130;24.732;2024-01-25T11:10:59;16.27;;;5.57;;
5754;SDS011;2902;42.130;24.732;2024-01-25T11:13:26;4.23;;;3.80;;
5754;SDS011;2902;42.130;24.732;2024-01-25T11:15:56;5.60;;;3.23;;
5754;SDS011;2902;42.130;24.732;2024-01-25T11:18:24;8.23;;;3.47;;
5754;SDS011;2902;42.130;24.732;2024-01-25T11:20:52;8.87;;;3.33;;
5754;SDS011;2902;42.130;24.732;2024-01-25T11:23:19;10.07;;;5.80;;
5754;SDS011;2902;42.130;24.732;2024-01-25T11:25:46;16.27;;;5.77;;
5754;SDS011;2902;42.130;24.732;2024-01-25T11:28:14;7.83;;;3.63;;
5754;SDS011;2902;42.130;24.732;2024-01-25T11:30:42;5.17;;;3.60;;
5754;SDS011;2902;42.130;24.732;2024-01-25T11:33:10;10.77;;;3.47;;
5754;SDS011;2902;42.130;24.732;2024-01-25T11:35:39;5.87;;;3.27;;
5754;SDS011;2902;42.130;24.732;2024-01-25T11:38:07;6.10;;;2.57;;
5754;SDS011;2902;42.130;24.732;2024-01-25T11:40:34;3.83;;;3.10;;
5754;SDS011;2902;42.130;24.732;2024-01-25T11:43:01;4.53;;;3.47;;
5754;SDS011;2902;42.130;24.732;2024-01-25T11:45:28;10.30;;;3.43;;
5754;SDS011;2902;42.130;24.732;2024-01-25T11:47:55;13.67;;;3.33;;
5754;SDS011;2902;42.130;24.732;2024-01-25T11:50:23;28.80;;;5.30;;
5754;SDS011;2902;42.130;24.732;2024-01-25T11:52:49;7.40;;;5.00;;
5754;SDS011;2902;42.130;24.732;2024-01-25T11:55:16;17.13;;;4.43;;
5754;SDS011;2902;42.130;24.732;2024-01-25T11:57:43;15.83;;;3.27;;
5754;SDS011;2902;42.130;24.732;2024-01-25T12:00:12;14.60;;;3.37;;
5754;SDS011;2902;42.130;24.732;2024-01-25T12:02:41;8.10;;;3.00;;
5754;SDS011;2902;42.130;24.732;2024-01-25T12:05:09;3.97;;;3.17;;
5754;SDS011;2902;42.130;24.732;2024-01-25T12:07:40;21.20;;;4.80;;
5754;SDS011;2902;42.130;24.732;2024-01-25T12:10:07;6.37;;;2.90;;
5754;SDS011;2902;42.130;24.732;2024-01-25T12:12:36;12.87;;;3.40;;
5754;SDS011;2902;42.130;24.732;2024-01-25T12:15:04;6.43;;;3.30;;
5754;SDS011;2902;42.130;24.732;2024-01-25T12:17:32;7.53;;;3.77;;
5754;SDS011;2902;42.130;24.732;2024-01-25T12:20:01;4.83;;;2.30;;
5754;SDS011;2902;42.130;24.732;2024-01-25T12:22:29;28.30;;;4.27;;
5754;SDS011;2902;42.130;24.732;2024-01-25T12:24:57;8.67;;;3.00;;
5754;SDS011;2902;42.130;24.732;2024-01-25T12:27:24;6.10;;;2.70;;
5754;SDS011;2902;42.130;24.732;2024-01-25T12:29:52;20.43;;;4.20;;
5754;SDS011;2902;42.130;24.732;2024-01-25T12:32:19;6.40;;;3.40;;
5754;SDS011;2902;42.130;24.732;2024-01-25T12:34:52;6.00;;;2.90;;
5754;SDS011;2902;42.130;24.732;2024-01-25T12:37:21;15.93;;;4.23;;
5754;SDS011;2902;42.130;24.732;2024-01-25T12:39:48;16.03;;;6.60;;
5754;SDS011;2902;42.130;24.732;2024-01-25T12:42:16;22.00;;;4.87;;
5754;SDS011;2902;42.130;24.732;2024-01-25T12:44:43;5.03;;;2.50;;
5754;SDS011;2902;42.130;24.732;2024-01-25T12:47:10;9.47;;;3.17;;
5754;SDS011;2902;42.130;24.732;2024-01-25T12:49:39;12.33;;;3.13;;
5754;SDS011;2902;42.130;24.732;2024-01-25T12:52:06;5.23;;;2.50;;
5754;SDS011;2902;42.130;24.732;2024-01-25T12:54:33;7.57;;;3.17;;
5754;SDS011;2902;42.130;24.732;2024-01-25T12:57:00;3.63;;;2.33;;
5754;SDS011;2902;42.130;24.732;2024-01-25T12:59:28;4.33;;;2.33;;
5754;SDS011;2902;42.130;24.732;2024-01-25T13:01:55;5.43;;;2.87;;
5754;SDS011;2902;42.130;24.732;2024-01-25T13:04:22;4.73;;;2.80;;
5754;SDS011;2902;42.130;24.732;2024-01-25T13:06:50;4.17;;;2.20;;
5754;SDS011;2902;42.130;24.732;2024-01-25T13:09:19;11.37;;;2.50;;
5754;SDS011;2902;42.130;24.732;2024-01-25T13:11:46;6.43;;;3.10;;
5754;SDS011;2902;42.130;24.732;2024-01-25T13:14:13;8.23;;;3.03;;
5754;SDS011;2902;42.130;24.732;2024-01-25T13:16:41;13.07;;;3.23;;
5754;SDS011;2902;42.130;24.732;2024-01-25T13:19:07;4.90;;;2.83;;
5754;SDS011;2902;42.130;24.732;2024-01-25T13:21:36;7.70;;;2.87;;
5754;SDS011;2902;42.130;24.732;2024-01-25T13:24:03;7.00;;;3.30;;
5754;SDS011;2902;42.130;24.732;2024-01-25T13:26:30;5.37;;;3.30;;
5754;SDS011;2902;42.130;24.732;2024-01-25T13:28:57;7.23;;;3.67;;
5754;SDS011;2902;42.130;24.732;2024-01-25T13:31:24;9.00;;;3.53;;
5754;SDS011;2902;42.130;24.732;2024-01-25T13:33:52;8.07;;;2.77;;
5754;SDS011;2902;42.130;24.732;2024-01-25T13:36:19;6.20;;;2.87;;
5754;SDS011;2902;42.130;24.732;2024-01-25T13:38:45;8.63;;;2.50;;
5754;SDS011;2902;42.130;24.732;2024-01-25T13:41:12;10.57;;;3.17;;
5754;SDS011;2902;42.130;24.732;2024-01-25T13:43:39;6.87;;;2.70;;
5754;SDS011;2902;42.130;24.732;2024-01-25T13:46:06;7.60;;;3.80;;
5754;SDS011;2902;42.130;24.732;2024-01-25T13:48:33;4.20;;;3.20;;
5754;SDS011;2902;42.130;24.732;2024-01-25T13:51:01;3.83;;;2.93;;
5754;SDS011;2902;42.130;24.732;2024-01-25T13:53:27;27.90;;;13.10;;
5754;SDS011;2902;42.130;24.732;2024-01-25T13:55:54;5.50;;;4.13;;
5754;SDS011;2902;42.130;24.732;2024-01-25T13:58:21;8.23;;;3.80;;
5754;SDS011;2902;42.130;24.732;2024-01-25T14:00:47;21.93;;;7.30;;
5754;SDS011;2902;42.130;24.732;2024-01-25T14:03:14;13.67;;;7.47;;
5754;SDS011;2902;42.130;24.732;2024-01-25T14:05:41;10.13;;;4.00;;
5754;SDS011;2902;42.130;24.732;2024-01-25T14:08:09;19.93;;;5.60;;
5754;SDS011;2902;42.130;24.732;2024-01-25T14:10:36;13.70;;;4.90;;
5754;SDS011;2902;42.130;24.732;2024-01-25T14:13:03;5.80;;;2.77;;
5754;SDS011;2902;42.130;24.732;2024-01-25T14:15:29;5.90;;;2.70;;
5754;SDS011;2902;42.130;24.732;2024-01-25T14:17:56;9.67;;;2.80;;
5754;SDS011;2902;42.130;24.732;2024-01-25T14:20:23;6.63;;;3.13;;
5754;SDS011;2902;42.130;24.732;2024-01-25T14:22:49;4.27;;;2.30;;
5754;SDS011;2902;42.130;24.732;2024-01-25T14:25:18;4.70;;;3.13;;
5754;SDS011;2902;42.130;24.732;2024-01-25T14:27:44;10.53;;;3.90;;
5754;SDS011;2902;42.130;24.732;2024-01-25T14:30:13;3.50;;;3.20;;
5754;SDS011;2902;42.130;24.732;2024-01-25T14:32:40;5.60;;;3.53;;
5754;SDS011;2902;42.130;24.732;2024-01-25T14:35:08;25.10;;;5.30;;
5754;SDS011;2902;42.130;24.732;2024-01-25T14:37:34;10.50;;;3.53;;
5754;SDS011;2902;42.130;24.732;2024-01-25T14:40:01;9.47;;;4.13;;
5754;SDS011;2902;42.130;24.732;2024-01-25T14:42:30;6.77;;;4.27;;
5754;SDS011;2902;42.130;24.732;2024-01-25T14:44:57;7.73;;;4.37;;
5754;SDS011;2902;42.130;24.732;2024-01-25T14:47:23;8.23;;;4.50;;
5754;SDS011;2902;42.130;24.732;2024-01-25T14:49:50;7.27;;;4.27;;
5754;SDS011;2902;42.130;24.732;2024-01-25T14:52:17;11.70;;;4.47;;
5754;SDS011;2902;42.130;24.732;2024-01-25T14:54:44;3.40;;;3.10;;
5754;SDS011;2902;42.130;24.732;2024-01-25T14:57:10;9.33;;;3.70;;